Time;durP1;ratioP1;P1;durP2;ratioP2;P2;SDS_P1;SDS_P2;PMS_P1;PMS_P2;Temp;Humidity;BMP_temperature;BMP_pressure;BME280_temperature;BME280_humidity;BME280_pressure;Samples;Min_cycle;Max_cycle;Signal;HPM_P1;HPM_P2
2024/03/13 00:02:12;;;;;;;3.20;2.53;;;5.20;99.90;;;;;;5011675;28;20531;-60
2024/03/13 00:04:43;;;;;;;3.83;3.03;;;5.30;99.90;;;;;;5007974;28;20192;-60
2024/03/13 00:07:13;;;;;;;2.90;2.70;;;5.20;99.90;;;;;;5011085;28;20490;-59
2024/03/13 00:09:46;;;;;;;3.00;2.63;;;5.20;99.90;;;;;;5014854;28;20953;-59
2024/03/13 00:12:14;;;;;;;2.77;2.30;;;5.20;99.90;;;;;;5008321;28;20419;-60
2024/03/13 00:14:46;;;;;;;2.50;2.30;;;5.20;99.90;;;;;;5007136;28;20434;-60
2024/03/13 00:17:11;;;;;;;6.33;2.93;;;5.20;99.90;;;;;;5009212;28;20442;-60
2024/03/13 00:19:37;;;;;;;3.33;2.90;;;5.20;99.90;;;;;;5007915;28;20431;-58
2024/03/13 00:22:04;;;;;;;3.93;3.40;;;5.20;99.90;;;;;;5009154;28;20210;-60
2024/03/13 00:24:30;;;;;;;4.23;2.80;;;5.10;99.90;;;;;;5011191;28;20550;-60
2024/03/13 00:26:57;;;;;;;3.33;2.83;;;5.20;99.90;;;;;;5013704;28;20450;-59
2024/03/13 00:29:25;;;;;;;4.43;3.73;;;5.10;99.90;;;;;;5009892;28;20415;-60
2024/03/13 00:31:51;;;;;;;3.00;2.60;;;5.10;99.90;;;;;;5008548;28;20527;-59
2024/03/13 00:34:18;;;;;;;3.23;2.90;;;5.20;99.90;;;;;;5007391;28;20412;-60
2024/03/13 00:36:43;;;;;;;3.80;2.80;;;5.20;99.90;;;;;;5008010;28;20436;-60
2024/03/13 00:39:10;;;;;;;2.93;2.63;;;5.10;99.90;;;;;;5004595;28;20933;-58
2024/03/13 00:41:36;;;;;;;3.50;2.70;;;5.20;99.90;;;;;;5013402;28;20200;-59
2024/03/13 00:44:03;;;;;;;5.37;3.20;;;5.10;99.90;;;;;;5009164;28;20492;-60
2024/03/13 00:46:29;;;;;;;5.90;3.07;;;5.10;99.90;;;;;;5013536;28;20463;-58
2024/03/13 00:48:54;;;;;;;4.30;2.70;;;5.10;99.90;;;;;;5007686;28;20452;-58
2024/03/13 00:51:20;;;;;;;3.30;2.87;;;5.10;99.90;;;;;;5007578;28;20629;-59
2024/03/13 00:53:46;;;;;;;3.93;3.00;;;5.10;99.90;;;;;;5009220;28;20204;-59
2024/03/13 00:56:12;;;;;;;2.97;2.63;;;5.10;99.90;;;;;;5005001;28;20187;-59
2024/03/13 00:58:37;;;;;;;4.20;2.93;;;5.20;99.90;;;;;;5008181;28;20408;-59
2024/03/13 01:01:03;;;;;;;2.80;2.60;;;5.20;99.90;;;;;;5007686;28;20577;-59
2024/03/13 01:03:29;;;;;;;2.50;2.30;;;5.10;99.90;;;;;;5009215;28;20659;-59
2024/03/13 01:05:56;;;;;;;4.53;2.37;;;5.20;99.90;;;;;;5007570;28;20200;-59
2024/03/13 01:08:24;;;;;;;2.40;2.20;;;5.20;99.90;;;;;;5006341;28;20176;-60
2024/03/13 01:10:52;;;;;;;7.77;2.83;;;5.20;99.90;;;;;;5009039;28;20451;-58
2024/03/13 01:13:19;;;;;;;2.83;2.27;;;5.20;99.90;;;;;;5008430;28;20423;-60
2024/03/13 01:15:45;;;;;;;2.57;2.30;;;5.20;99.90;;;;;;5008093;28;20929;-60
2024/03/13 01:18:11;;;;;;;2.93;2.60;;;5.10;99.90;;;;;;5009045;28;20470;-60
2024/03/13 01:20:36;;;;;;;3.77;2.73;;;5.10;99.90;;;;;;5006186;28;20956;-58
2024/03/13 01:23:02;;;;;;;2.37;2.17;;;5.20;99.90;;;;;;5009085;28;20183;-58
2024/03/13 01:25:28;;;;;;;5.10;2.83;;;5.20;99.90;;;;;;5007743;28;20180;-58
2024/03/13 01:27:53;;;;;;;2.63;2.43;;;5.10;99.90;;;;;;5005493;28;20557;-58
2024/03/13 01:30:21;;;;;;;2.07;1.87;;;5.20;99.90;;;;;;5007056;28;20200;-58
2024/03/13 01:32:47;;;;;;;2.23;2.00;;;5.20;99.90;;;;;;5007743;28;20172;-57
2024/03/13 01:35:13;;;;;;;2.30;2.10;;;5.20;99.90;;;;;;5010079;28;20429;-59
2024/03/13 01:40:28;;;;;;;4.80;2.30;;;5.20;99.90;;;;;;5007831;28;20211;-61
2024/03/13 01:56:59;;;;;;;1.53;1.40;;;5.20;99.90;;;;;;5006581;28;20470;-60
2024/03/13 01:59:35;;;;;;;1.93;1.83;;;5.20;99.90;;;;;;5006987;28;20439;-59
2024/03/13 02:04:48;;;;;;;2.90;1.80;;;5.20;99.90;;;;;;5010422;28;20409;-59
2024/03/13 02:07:15;;;;;;;2.03;1.80;;;5.20;99.90;;;;;;5005017;28;20525;-59
2024/03/13 02:09:41;;;;;;;2.10;1.90;;;5.20;99.90;;;;;;5009736;28;20502;-59
2024/03/13 02:12:12;;;;;;;2.10;2.00;;;5.20;99.90;;;;;;5006353;28;20511;-60
2024/03/13 02:14:38;;;;;;;4.83;1.70;;;5.20;99.90;;;;;;5006226;28;20185;-58
2024/03/13 02:17:06;;;;;;;1.83;1.73;;;5.30;99.90;;;;;;5008398;28;20419;-59
2024/03/13 02:19:36;;;;;;;1.70;1.60;;;5.20;99.90;;;;;;5010285;28;20218;-60
2024/03/13 02:22:07;;;;;;;2.17;2.03;;;5.20;99.90;;;;;;5000710;28;20451;-59
2024/03/13 02:24:33;;;;;;;1.90;1.60;;;5.30;99.90;;;;;;5001863;28;20443;-59
2024/03/13 02:27:00;;;;;;;1.80;1.70;;;5.30;99.90;;;;;;5007520;28;20525;-58
2024/03/13 02:29:26;;;;;;;1.60;1.50;;;5.30;99.90;;;;;;5012303;28;20509;-60
2024/03/13 02:31:52;;;;;;;2.70;2.50;;;5.20;99.90;;;;;;5002716;28;20451;-59
2024/03/13 02:34:20;;;;;;;2.37;2.17;;;5.20;99.90;;;;;;5005022;28;20829;-61
2024/03/13 02:36:49;;;;;;;2.10;1.93;;;5.30;99.90;;;;;;5006150;28;20288;-59
2024/03/13 02:39:18;;;;;;;2.23;2.07;;;5.30;99.90;;;;;;5010903;28;20414;-59
2024/03/13 02:41:44;;;;;;;1.80;1.70;;;5.30;99.90;;;;;;5003512;28;20456;-59
2024/03/13 02:44:10;;;;;;;1.70;1.60;;;5.30;99.90;;;;;;5002913;28;20415;-60
2024/03/13 02:46:35;;;;;;;1.90;1.80;;;5.30;99.90;;;;;;4988060;28;20478;-57
2024/03/13 02:49:01;;;;;;;1.70;1.60;;;5.30;99.90;;;;;;5005101;28;20180;-58
2024/03/13 02:51:26;;;;;;;1.80;1.70;;;5.30;99.90;;;;;;5007584;28;20207;-59
2024/03/13 02:53:52;;;;;;;2.83;1.70;;;5.40;99.90;;;;;;5004316;28;20177;-59
2024/03/13 02:56:17;;;;;;;3.17;1.70;;;5.30;99.90;;;;;;5005580;28;20184;-59
2024/03/13 02:58:45;;;;;;;2.77;1.97;;;5.30;99.90;;;;;;5007451;28;20586;-59
2024/03/13 03:01:12;;;;;;;1.73;1.63;;;5.30;99.90;;;;;;5006168;28;20200;-59
2024/03/13 03:03:39;;;;;;;2.33;1.63;;;5.30;99.90;;;;;;5006858;28;20423;-60
2024/03/13 03:06:06;;;;;;;2.30;1.73;;;5.30;99.90;;;;;;5006000;28;20470;-59
2024/03/13 03:08:33;;;;;;;1.87;1.70;;;5.30;99.90;;;;;;5009531;28;20797;-57
2024/03/13 03:11:00;;;;;;;1.90;1.53;;;5.30;99.90;;;;;;5006818;28;20592;-59
2024/03/13 03:13:26;;;;;;;2.50;2.00;;;5.30;99.90;;;;;;5008877;28;20518;-59
2024/03/13 03:15:52;;;;;;;2.17;1.70;;;5.30;99.90;;;;;;5001573;28;20517;-59
2024/03/13 03:18:17;;;;;;;1.87;1.77;;;5.30;99.90;;;;;;5012694;28;20419;-59
2024/03/13 03:20:45;;;;;;;1.90;1.80;;;5.30;99.90;;;;;;5006352;28;20683;-60
2024/03/13 03:23:11;;;;;;;2.50;1.97;;;5.40;99.90;;;;;;5012276;28;20187;-59
2024/03/13 03:25:37;;;;;;;1.77;1.60;;;5.30;99.90;;;;;;5013362;28;20411;-59
2024/03/13 03:28:03;;;;;;;2.37;1.77;;;5.40;99.90;;;;;;5012874;28;20231;-59
2024/03/13 03:30:31;;;;;;;1.80;1.70;;;5.40;99.90;;;;;;5007347;28;20208;-59
2024/03/13 03:33:00;;;;;;;1.73;1.63;;;5.40;99.90;;;;;;5009360;28;20431;-59
2024/03/13 03:35:27;;;;;;;2.10;1.70;;;5.30;99.90;;;;;;5010438;28;20411;-59
2024/03/13 03:37:53;;;;;;;1.70;1.60;;;5.40;99.90;;;;;;5002332;28;20437;-59
2024/03/13 03:40:19;;;;;;;2.10;1.90;;;5.40;99.90;;;;;;5008765;28;20430;-59
2024/03/13 03:42:46;;;;;;;3.53;1.80;;;5.30;99.90;;;;;;5010908;28;20180;-58
2024/03/13 03:45:12;;;;;;;2.53;1.80;;;5.40;99.90;;;;;;5010622;28;20422;-59
2024/03/13 03:47:38;;;;;;;2.07;1.93;;;5.30;99.90;;;;;;5009552;28;20462;-59
2024/03/13 03:50:07;;;;;;;1.80;1.70;;;5.30;99.90;;;;;;5011509;28;20218;-59
2024/03/13 03:52:33;;;;;;;2.00;1.90;;;5.30;99.90;;;;;;5014304;28;20497;-59
2024/03/13 03:55:02;;;;;;;1.70;1.60;;;5.40;99.90;;;;;;5010099;28;20415;-58
2024/03/13 03:57:28;;;;;;;2.50;2.00;;;5.40;99.90;;;;;;5006179;28;21200;-59
2024/03/13 03:59:54;;;;;;;3.00;2.00;;;5.40;99.90;;;;;;5005663;28;20538;-60
2024/03/13 04:02:20;;;;;;;2.50;1.97;;;5.30;99.90;;;;;;5008025;28;20211;-59
2024/03/13 04:04:46;;;;;;;2.00;1.80;;;5.30;99.90;;;;;;5010694;28;20446;-60
2024/03/13 04:07:11;;;;;;;2.47;2.27;;;5.40;99.90;;;;;;5009606;28;20208;-59
2024/03/13 04:09:37;;;;;;;2.80;2.03;;;5.30;99.90;;;;;;5009331;28;20184;-59
2024/03/13 04:12:03;;;;;;;2.10;1.90;;;5.40;99.90;;;;;;5011564;28;20193;-59
2024/03/13 04:14:29;;;;;;;2.00;1.87;;;5.40;99.90;;;;;;5010756;28;20260;-59
2024/03/13 04:16:54;;;;;;;2.00;1.90;;;5.40;99.90;;;;;;5009060;28;20176;-59
2024/03/13 04:19:21;;;;;;;2.20;2.00;;;5.40;99.90;;;;;;5008868;28;20189;-66
2024/03/13 04:21:47;;;;;;;2.40;2.20;;;5.30;99.90;;;;;;5008990;28;20204;-59
2024/03/13 04:24:13;;;;;;;2.23;1.90;;;5.40;99.90;;;;;;5006980;28;20431;-59
2024/03/13 04:26:43;;;;;;;2.00;1.90;;;5.40;99.90;;;;;;5009712;28;21009;-59
2024/03/13 04:29:10;;;;;;;2.07;1.87;;;5.40;99.90;;;;;;5004511;28;20177;-60
2024/03/13 04:31:39;;;;;;;3.40;1.87;;;5.40;99.90;;;;;;5010557;28;20506;-59
2024/03/13 04:34:07;;;;;;;1.97;1.80;;;5.40;99.90;;;;;;5003231;28;20438;-59
2024/03/13 04:36:35;;;;;;;2.93;2.20;;;5.40;99.90;;;;;;5008025;28;20411;-59
2024/03/13 04:39:01;;;;;;;2.30;2.10;;;5.40;99.90;;;;;;5010691;28;20431;-59
2024/03/13 04:41:27;;;;;;;4.20;2.17;;;5.40;99.90;;;;;;5000226;28;20820;-59
2024/03/13 04:43:52;;;;;;;2.30;1.90;;;5.40;99.90;;;;;;5006215;28;20181;-59
2024/03/13 04:46:18;;;;;;;2.20;2.00;;;5.40;99.90;;;;;;4995509;28;20702;-59
2024/03/13 04:48:45;;;;;;;2.00;1.90;;;5.40;99.90;;;;;;5007156;28;20177;-59
2024/03/13 04:51:12;;;;;;;1.87;1.77;;;5.40;99.90;;;;;;5007397;28;20204;-59
2024/03/13 04:53:37;;;;;;;2.50;2.30;;;5.40;99.90;;;;;;5003584;28;20524;-58
2024/03/13 04:56:03;;;;;;;2.90;2.10;;;5.40;99.90;;;;;;5006379;28;20809;-61
2024/03/13 04:58:29;;;;;;;2.53;2.20;;;5.50;99.90;;;;;;4990553;28;20181;-58
2024/03/13 05:00:55;;;;;;;1.97;1.87;;;5.50;99.90;;;;;;5007482;28;20444;-58
2024/03/13 05:03:21;;;;;;;2.27;2.07;;;5.50;99.90;;;;;;5006340;28;20271;-58
2024/03/13 05:05:46;;;;;;;2.20;2.00;;;5.50;99.90;;;;;;5012409;28;20191;-60
2024/03/13 05:08:16;;;;;;;2.63;2.40;;;5.50;99.90;;;;;;5005608;28;20677;-60
2024/03/13 05:10:43;;;;;;;2.20;1.73;;;5.50;99.90;;;;;;5006975;28;20714;-59
2024/03/13 05:13:08;;;;;;;2.10;2.00;;;5.50;99.90;;;;;;5004984;28;20431;-63
2024/03/13 05:15:34;;;;;;;3.57;2.10;;;5.50;99.90;;;;;;4997705;28;20428;-61
2024/03/13 05:18:00;;;;;;;2.80;2.27;;;5.50;99.90;;;;;;4996153;28;20672;-61
2024/03/13 05:20:27;;;;;;;4.13;2.33;;;5.50;99.90;;;;;;4998210;28;20280;-61
2024/03/13 05:22:53;;;;;;;3.67;2.43;;;5.50;99.90;;;;;;4989576;28;20197;-61
2024/03/13 05:25:22;;;;;;;9.57;4.83;;;5.50;99.90;;;;;;5002063;28;20463;-60
2024/03/13 05:27:49;;;;;;;6.57;3.63;;;5.60;99.90;;;;;;4998192;28;20203;-59
2024/03/13 05:30:15;;;;;;;5.20;3.70;;;5.60;99.90;;;;;;5001352;28;20452;-55
2024/03/13 05:32:42;;;;;;;6.70;3.30;;;5.60;99.90;;;;;;4999425;28;20509;-58
2024/03/13 05:35:08;;;;;;;4.47;3.40;;;5.60;99.90;;;;;;5001493;28;20523;-54
2024/03/13 05:37:36;;;;;;;3.60;2.77;;;5.60;99.90;;;;;;5004358;28;20525;-61
2024/03/13 05:40:11;;;;;;;2.90;2.60;;;5.60;99.90;;;;;;4999814;28;20205;-59
2024/03/13 05:42:41;;;;;;;4.63;2.67;;;5.60;99.90;;;;;;5003336;28;20423;-59
2024/03/13 05:45:08;;;;;;;2.77;2.47;;;5.70;99.90;;;;;;5000780;28;20530;-60
2024/03/13 05:47:33;;;;;;;2.13;1.93;;;5.70;99.90;;;;;;5001442;28;20459;-61
2024/03/13 05:49:59;;;;;;;2.90;1.90;;;5.70;99.90;;;;;;5004216;28;20459;-60
2024/03/13 05:52:24;;;;;;;5.20;3.00;;;5.70;99.90;;;;;;5009878;28;20174;-60
2024/03/13 05:54:50;;;;;;;3.10;2.40;;;5.70;99.90;;;;;;5005288;28;20714;-59
2024/03/13 05:57:16;;;;;;;2.87;2.37;;;5.70;99.90;;;;;;5006818;28;20173;-60
2024/03/13 05:59:41;;;;;;;4.03;2.53;;;5.70;99.90;;;;;;5009939;28;23006;-59
2024/03/13 06:02:07;;;;;;;2.70;2.50;;;5.70;99.90;;;;;;5005643;28;20662;-60
2024/03/13 06:04:33;;;;;;;5.20;3.63;;;5.70;99.90;;;;;;5008414;28;20647;-60
2024/03/13 06:06:59;;;;;;;2.50;2.30;;;5.80;99.90;;;;;;5007504;28;20345;-60
2024/03/13 06:09:25;;;;;;;5.57;2.80;;;5.80;99.90;;;;;;5008540;28;20415;-59
2024/03/13 06:11:52;;;;;;;5.10;3.00;;;5.80;99.90;;;;;;5002403;28;20472;-58
2024/03/13 06:14:18;;;;;;;3.90;3.47;;;5.80;99.90;;;;;;5005706;28;20427;-59
2024/03/13 06:16:43;;;;;;;9.07;5.00;;;5.80;99.90;;;;;;5009802;28;20408;-59
2024/03/13 06:19:10;;;;;;;5.23;4.40;;;5.80;99.90;;;;;;5006959;28;20558;-60
2024/03/13 06:21:36;;;;;;;6.23;4.43;;;5.80;99.90;;;;;;5008099;28;20205;-59
2024/03/13 06:24:05;;;;;;;5.63;4.30;;;5.80;99.90;;;;;;5009706;28;20415;-60
2024/03/13 06:26:30;;;;;;;11.83;5.80;;;5.80;99.90;;;;;;5007280;28;20691;-60
2024/03/13 06:31:42;;;;;;;11.20;7.97;;;5.70;99.90;;;;;;5009790;28;20202;-61
2024/03/13 06:34:11;;;;;;;9.07;6.90;;;5.70;99.90;;;;;;5001244;28;20519;-60
2024/03/13 06:36:37;;;;;;;12.80;7.10;;;5.70;99.90;;;;;;5002477;28;20491;-60
2024/03/13 06:39:07;;;;;;;9.20;6.53;;;5.70;99.90;;;;;;5007675;28;20423;-58
2024/03/13 06:41:33;;;;;;;9.10;6.87;;;5.70;99.90;;;;;;5012576;28;20192;-57
2024/03/13 06:43:58;;;;;;;9.73;7.07;;;5.80;99.90;;;;;;5007867;28;20431;-61
2024/03/13 06:46:28;;;;;;;10.23;6.40;;;5.80;99.90;;;;;;5006687;28;20447;-59
2024/03/13 06:48:54;;;;;;;13.10;6.70;;;5.80;99.90;;;;;;5008338;28;20689;-58
2024/03/13 06:51:20;;;;;;;7.17;5.47;;;5.80;99.90;;;;;;5005635;28;21152;-58
2024/03/13 06:53:46;;;;;;;9.20;5.57;;;5.80;99.90;;;;;;5010188;28;20424;-59
2024/03/13 06:56:12;;;;;;;8.97;6.67;;;5.80;99.90;;;;;;5001520;28;20430;-59
2024/03/13 06:58:37;;;;;;;12.70;7.30;;;5.80;99.90;;;;;;4999820;28;20779;-58
2024/03/13 07:01:13;;;;;;;8.50;6.23;;;5.80;99.90;;;;;;5008086;28;20222;-58
2024/03/13 07:03:41;;;;;;;15.97;10.80;;;5.90;99.90;;;;;;5007398;28;20192;-58
2024/03/13 07:06:06;;;;;;;19.20;12.87;;;5.80;99.90;;;;;;5010656;28;20482;-61
2024/03/13 07:08:32;;;;;;;11.87;8.70;;;5.80;99.90;;;;;;5007519;28;20450;-58
2024/03/13 07:10:59;;;;;;;9.27;7.23;;;5.90;99.90;;;;;;5010195;28;20206;-59
2024/03/13 07:13:24;;;;;;;11.43;7.50;;;5.80;99.90;;;;;;5004225;28;20562;-59
2024/03/13 07:15:50;;;;;;;7.83;6.10;;;5.80;99.90;;;;;;5005148;28;20433;-59
2024/03/13 07:18:16;;;;;;;12.57;7.03;;;5.80;99.90;;;;;;4999344;28;20280;-59
2024/03/13 07:20:41;;;;;;;9.30;7.60;;;5.80;99.90;;;;;;5003483;28;20307;-58
2024/03/13 07:23:08;;;;;;;7.57;6.27;;;5.80;99.90;;;;;;5012216;28;20199;-58
2024/03/13 07:25:34;;;;;;;9.07;6.80;;;5.80;99.90;;;;;;5009128;28;20267;-59
2024/03/13 07:28:00;;;;;;;12.00;7.07;;;5.80;99.90;;;;;;5005575;28;20466;-59
2024/03/13 07:30:27;;;;;;;9.20;6.40;;;5.90;99.90;;;;;;5006540;28;20446;-60
2024/03/13 07:32:53;;;;;;;10.60;6.70;;;5.90;99.90;;;;;;5005522;28;20307;-59
2024/03/13 07:35:19;;;;;;;6.27;4.90;;;5.90;99.90;;;;;;5009106;28;20430;-60
2024/03/13 07:37:44;;;;;;;8.07;5.87;;;6.00;99.90;;;;;;5002018;28;20954;-60
2024/03/13 07:40:10;;;;;;;60.27;8.33;;;6.00;99.90;;;;;;5005147;28;20258;-58
2024/03/13 07:42:36;;;;;;;19.13;6.53;;;6.00;99.90;;;;;;5006586;28;20191;-59
2024/03/13 07:45:02;;;;;;;12.33;5.50;;;6.10;99.90;;;;;;5003890;28;20431;-59
2024/03/13 07:47:28;;;;;;;11.40;6.33;;;6.10;99.90;;;;;;5000580;28;20228;-58
2024/03/13 07:49:53;;;;;;;7.90;5.60;;;6.10;99.90;;;;;;5004675;28;20525;-59
2024/03/13 07:52:19;;;;;;;18.87;6.70;;;6.10;99.90;;;;;;5003536;28;20172;-60
2024/03/13 07:54:45;;;;;;;20.07;6.77;;;6.20;99.90;;;;;;4996006;28;21275;-60
2024/03/13 07:57:13;;;;;;;13.10;5.90;;;6.30;99.90;;;;;;5002174;28;20184;-60
2024/03/13 07:59:40;;;;;;;8.60;5.10;;;6.30;99.90;;;;;;5005505;28;20666;-58
2024/03/13 08:02:07;;;;;;;5.47;4.50;;;6.30;99.90;;;;;;5002368;28;20415;-59
2024/03/13 08:04:36;;;;;;;5.20;4.20;;;6.40;99.90;;;;;;4986800;28;20440;-60
2024/03/13 08:07:01;;;;;;;4.57;3.37;;;6.40;99.90;;;;;;5011185;28;20455;-60
2024/03/13 08:09:30;;;;;;;5.37;3.37;;;6.40;99.90;;;;;;5009257;28;20426;-60
2024/03/13 08:11:57;;;;;;;5.30;3.63;;;6.50;99.90;;;;;;5005700;28;20197;-60
2024/03/13 08:14:23;;;;;;;28.03;5.03;;;6.50;99.90;;;;;;5010200;28;20433;-60
2024/03/13 08:16:49;;;;;;;23.17;4.00;;;6.50;99.90;;;;;;5008914;28;20818;-60
2024/03/13 08:19:15;;;;;;;15.00;3.60;;;6.60;99.90;;;;;;5009950;28;20243;-59
2024/03/13 08:21:40;;;;;;;5.47;2.93;;;6.60;99.90;;;;;;5004871;28;20204;-59
2024/03/13 08:24:07;;;;;;;3.93;2.87;;;6.60;99.90;;;;;;5009572;28;20180;-61
2024/03/13 08:26:32;;;;;;;4.40;2.60;;;6.60;99.90;;;;;;5008832;28;20639;-59
2024/03/13 08:28:59;;;;;;;3.40;2.57;;;6.60;99.90;;;;;;5001977;28;20878;-60
2024/03/13 08:31:24;;;;;;;5.00;3.00;;;6.60;99.90;;;;;;5008005;28;20200;-60
2024/03/13 08:33:50;;;;;;;3.23;2.83;;;6.70;99.90;;;;;;5008912;28;20514;-59
2024/03/13 08:36:18;;;;;;;6.47;4.30;;;6.70;99.90;;;;;;5007368;28;20177;-59
2024/03/13 08:38:44;;;;;;;6.50;5.00;;;6.70;99.90;;;;;;5010328;28;20726;-59
2024/03/13 08:41:10;;;;;;;9.47;5.50;;;6.70;99.90;;;;;;5000711;28;20967;-59
2024/03/13 08:43:36;;;;;;;10.00;4.40;;;6.80;99.90;;;;;;4991208;28;20462;-59
2024/03/13 08:46:03;;;;;;;7.77;5.13;;;6.80;99.90;;;;;;5006640;28;21028;-60
2024/03/13 08:48:29;;;;;;;6.00;4.43;;;6.80;99.90;;;;;;5007804;28;20337;-59
2024/03/13 08:50:57;;;;;;;7.30;4.67;;;6.80;99.90;;;;;;5007005;28;20566;-62
2024/03/13 08:53:23;;;;;;;10.07;5.37;;;6.90;99.90;;;;;;5011658;28;21819;-59
2024/03/13 08:55:49;;;;;;;6.83;5.00;;;6.90;99.90;;;;;;5009358;28;20519;-59
2024/03/13 08:58:14;;;;;;;11.97;5.90;;;6.90;99.90;;;;;;5008459;28;20441;-60
2024/03/13 09:00:42;;;;;;;30.20;11.23;;;6.90;99.90;;;;;;5007302;28;20212;-59
2024/03/13 09:03:11;;;;;;;17.27;8.03;;;6.90;99.90;;;;;;5001971;28;20204;-58
2024/03/13 09:05:37;;;;;;;6.13;4.07;;;7.00;99.90;;;;;;5008667;28;20717;-59
2024/03/13 09:08:02;;;;;;;5.87;3.83;;;7.00;99.90;;;;;;5010001;28;21119;-59
2024/03/13 09:10:28;;;;;;;5.13;3.57;;;7.00;99.90;;;;;;5006740;28;20267;-60
2024/03/13 09:12:54;;;;;;;3.37;3.07;;;7.10;99.90;;;;;;5011252;28;20172;-59
2024/03/13 09:15:19;;;;;;;4.60;3.57;;;7.10;99.90;;;;;;5008043;28;20255;-60
2024/03/13 09:17:45;;;;;;;3.37;2.87;;;7.10;99.90;;;;;;5006655;28;20184;-60
2024/03/13 09:20:14;;;;;;;3.10;2.60;;;7.20;99.90;;;;;;5008453;28;20220;-61
2024/03/13 09:22:41;;;;;;;4.53;2.90;;;7.20;99.90;;;;;;5005697;28;20196;-59
2024/03/13 09:25:11;;;;;;;3.77;3.10;;;7.20;99.90;;;;;;5004364;28;20922;-60
2024/03/13 09:27:38;;;;;;;4.10;2.83;;;7.30;99.90;;;;;;5010346;28;20463;-58
2024/03/13 09:30:06;;;;;;;3.27;2.97;;;7.30;99.90;;;;;;5009625;28;20431;-58
2024/03/13 09:32:32;;;;;;;5.87;3.03;;;7.40;99.90;;;;;;5006484;28;20484;-59
2024/03/13 09:34:58;;;;;;;3.20;2.90;;;7.40;99.90;;;;;;5008341;28;20888;-61
2024/03/13 09:37:25;;;;;;;4.37;2.73;;;7.40;99.90;;;;;;4988983;28;20447;-59
2024/03/13 09:39:52;;;;;;;3.30;2.90;;;7.50;99.90;;;;;;5010113;28;20350;-59
2024/03/13 09:42:18;;;;;;;6.17;3.70;;;7.50;99.90;;;;;;5007653;28;20455;-60
2024/03/13 09:44:44;;;;;;;5.80;3.83;;;7.60;99.90;;;;;;5008843;28;20475;-60
2024/03/13 09:47:12;;;;;;;5.37;2.87;;;7.60;99.90;;;;;;5006875;28;20207;-60
2024/03/13 09:49:42;;;;;;;3.93;3.00;;;7.70;99.90;;;;;;5005684;28;20419;-59
2024/03/13 09:52:12;;;;;;;19.63;6.33;;;7.70;99.90;;;;;;5006529;28;20475;-60
2024/03/13 09:54:43;;;;;;;12.33;4.80;;;7.70;99.90;;;;;;5004366;28;20428;-60
2024/03/13 09:57:10;;;;;;;19.13;6.40;;;7.80;99.90;;;;;;5004235;28;20604;-60
2024/03/13 09:59:37;;;;;;;7.40;3.00;;;7.80;99.90;;;;;;5040633;22;20493;-59
2024/03/13 10:02:03;;;;;;;2.50;2.30;;;7.80;99.90;;;;;;5044387;28;20479;-59
2024/03/13 10:04:31;;;;;;;19.80;4.07;;;7.80;99.90;;;;;;5043914;28;20433;-59
2024/03/13 10:07:01;;;;;;;23.20;4.23;;;7.90;99.90;;;;;;5040751;28;20453;-59
2024/03/13 10:09:37;;;;;;;10.07;3.00;;;7.90;99.90;;;;;;5037471;28;20972;-59
2024/03/13 10:12:05;;;;;;;5.27;2.77;;;7.90;99.90;;;;;;5025673;28;20422;-60
2024/03/13 10:14:31;;;;;;;2.83;2.17;;;8.00;99.90;;;;;;5022201;28;20508;-59
2024/03/13 10:17:03;;;;;;;2.77;2.30;;;8.00;99.90;;;;;;5005247;28;20434;-60
2024/03/13 10:19:31;;;;;;;23.23;4.57;;;8.00;99.90;;;;;;5025813;28;20484;-59
2024/03/13 10:21:59;;;;;;;7.37;3.33;;;8.10;99.90;;;;;;5026085;28;20419;-59
2024/03/13 10:24:28;;;;;;;9.67;2.83;;;8.10;99.90;;;;;;5025785;28;20418;-59
2024/03/13 10:26:56;;;;;;;12.43;2.60;;;8.10;99.90;;;;;;5005970;28;20458;-60
2024/03/13 10:29:23;;;;;;;7.40;2.60;;;8.20;99.90;;;;;;5025781;28;20431;-60
2024/03/13 10:31:51;;;;;;;4.53;2.90;;;8.10;99.90;;;;;;5024887;28;20423;-59
2024/03/13 10:34:18;;;;;;;2.63;2.40;;;8.20;99.90;;;;;;5022784;28;20446;-59
2024/03/13 10:36:45;;;;;;;2.50;2.30;;;8.20;99.90;;;;;;5026593;28;20462;-61
2024/03/13 10:39:13;;;;;;;2.33;2.13;;;8.30;99.90;;;;;;5020993;28;20442;-59
2024/03/13 10:41:44;;;;;;;6.00;2.80;;;8.30;99.90;;;;;;5025610;28;20609;-59
2024/03/13 10:44:10;;;;;;;3.70;3.17;;;8.30;99.90;;;;;;5005030;28;20433;-60
2024/03/13 10:46:37;;;;;;;2.83;2.10;;;8.40;99.90;;;;;;5023101;28;20958;-58
2024/03/13 10:49:03;;;;;;;2.60;2.40;;;8.50;99.90;;;;;;5026019;28;20430;-60
2024/03/13 10:51:32;;;;;;;2.60;2.40;;;8.50;99.90;;;;;;5018469;28;20520;-60
2024/03/13 10:54:03;;;;;;;3.33;2.50;;;8.60;99.90;;;;;;5023533;28;20461;-60
2024/03/13 10:56:28;;;;;;;2.73;2.47;;;8.70;99.90;;;;;;5024493;28;20406;-59
2024/03/13 10:58:55;;;;;;;4.00;2.80;;;8.70;99.90;;;;;;5006972;28;20521;-61
2024/03/13 11:01:21;;;;;;;3.50;2.73;;;8.80;99.90;;;;;;5020577;28;20279;-61
2024/03/13 11:03:59;;;;;;;2.20;2.00;;;8.80;99.90;;;;;;5025125;28;20418;-60
2024/03/13 11:06:25;;;;;;;3.10;2.10;;;8.80;99.90;;;;;;5023287;28;20514;-59
2024/03/13 11:08:51;;;;;;;2.80;2.50;;;8.80;99.90;;;;;;5018394;28;20511;-59
2024/03/13 11:11:20;;;;;;;2.33;2.13;;;8.80;99.90;;;;;;5020865;28;20434;-60
2024/03/13 11:13:54;;;;;;;2.30;2.07;;;8.80;99.90;;;;;;5021933;28;20422;-59
2024/03/13 11:16:22;;;;;;;2.80;2.23;;;8.80;99.90;;;;;;5022477;28;20426;-60
2024/03/13 11:18:51;;;;;;;2.83;1.53;;;8.90;99.90;;;;;;5024314;28;20410;-59
2024/03/13 11:21:28;;;;;;;2.27;1.80;;;8.90;99.90;;;;;;5006046;28;20449;-60
2024/03/13 11:24:02;;;;;;;2.30;2.10;;;8.90;99.90;;;;;;5022166;28;20438;-60
2024/03/13 11:26:33;;;;;;;4.30;2.17;;;8.90;99.90;;;;;;5021822;28;20509;-59
2024/03/13 11:29:01;;;;;;;2.40;1.93;;;8.90;99.90;;;;;;5024423;28;20419;-61
2024/03/13 11:31:31;;;;;;;2.20;2.00;;;8.90;99.90;;;;;;5023285;28;20774;-61
2024/03/13 11:33:58;;;;;;;4.77;3.37;;;9.00;99.90;;;;;;5023918;28;20441;-60
2024/03/13 11:36:24;;;;;;;2.33;2.07;;;9.00;99.90;;;;;;5025415;28;20472;-59
2024/03/13 11:38:50;;;;;;;2.53;1.70;;;9.10;99.90;;;;;;5028241;28;20418;-59
2024/03/13 11:41:16;;;;;;;7.63;2.00;;;9.20;99.90;;;;;;5027191;28;20472;-59
2024/03/13 11:43:41;;;;;;;2.00;1.90;;;9.20;99.90;;;;;;5026783;28;20446;-60
2024/03/13 11:46:11;;;;;;;3.20;2.43;;;9.20;99.90;;;;;;5028054;28;20274;-59
2024/03/13 11:48:37;;;;;;;2.40;2.20;;;9.20;99.90;;;;;;5000802;28;20180;-57
2024/03/13 11:51:05;;;;;;;2.17;1.97;;;9.20;99.90;;;;;;5024699;28;21011;-59
2024/03/13 11:53:34;;;;;;;2.23;2.03;;;9.30;99.90;;;;;;5025126;28;20172;-59
2024/03/13 11:56:02;;;;;;;2.13;1.90;;;9.30;99.90;;;;;;5006482;28;20434;-59
2024/03/13 11:58:28;;;;;;;2.20;2.00;;;9.30;99.90;;;;;;5026684;28;20833;-60
2024/03/13 12:00:54;;;;;;;8.33;3.40;;;9.30;99.90;;;;;;5023117;28;20463;-60
2024/03/13 12:03:20;;;;;;;4.50;2.87;;;9.40;99.90;;;;;;5028614;28;20249;-60
2024/03/13 12:05:46;;;;;;;2.10;1.87;;;9.40;99.90;;;;;;5006561;28;20989;-61
2024/03/13 12:08:16;;;;;;;2.57;2.20;;;9.50;99.90;;;;;;5024432;28;20469;-59
2024/03/13 12:10:41;;;;;;;1.70;1.60;;;9.50;99.90;;;;;;5026794;28;20252;-60
2024/03/13 12:13:15;;;;;;;2.90;2.10;;;9.50;99.90;;;;;;5028561;28;20410;-61
2024/03/13 12:15:42;;;;;;;1.70;1.60;;;9.60;99.90;;;;;;5023732;28;20176;-60
2024/03/13 12:18:11;;;;;;;1.40;1.30;;;9.60;99.90;;;;;;5027466;28;20419;-60
2024/03/13 12:20:40;;;;;;;2.53;1.67;;;9.70;99.90;;;;;;5028335;28;20438;-59
2024/03/13 12:23:08;;;;;;;2.60;1.73;;;9.70;99.90;;;;;;5026354;28;20434;-57
2024/03/13 12:25:35;;;;;;;1.73;1.53;;;9.80;99.90;;;;;;5027633;28;20988;-60
2024/03/13 12:28:01;;;;;;;2.70;2.20;;;9.80;99.90;;;;;;5024754;28;20481;-61
2024/03/13 12:30:29;;;;;;;3.67;2.03;;;9.80;99.90;;;;;;5023747;28;20986;-59
2024/03/13 12:32:59;;;;;;;2.10;1.90;;;9.80;99.90;;;;;;5026588;28;20417;-61
2024/03/13 12:35:25;;;;;;;1.70;1.40;;;9.80;99.90;;;;;;5028317;28;20411;-60
2024/03/13 12:37:53;;;;;;;2.00;1.80;;;9.80;99.90;;;;;;5025958;28;20479;-62
2024/03/13 12:40:20;;;;;;;2.20;2.10;;;9.90;99.90;;;;;;5024883;28;20195;-60
2024/03/13 12:42:47;;;;;;;1.60;1.50;;;9.90;99.90;;;;;;5026500;28;20943;-60
2024/03/13 12:45:14;;;;;;;1.57;1.47;;;9.90;99.90;;;;;;5028193;28;20525;-61
2024/03/13 12:47:41;;;;;;;1.20;1.00;;;10.00;99.90;;;;;;5022869;28;20527;-60
2024/03/13 12:50:15;;;;;;;1.53;1.37;;;10.00;99.90;;;;;;5024737;28;20525;-60
2024/03/13 12:52:51;;;;;;;1.20;1.10;;;10.10;99.90;;;;;;5021850;28;20438;-60
2024/03/13 12:55:19;;;;;;;1.37;1.20;;;10.20;99.90;;;;;;5024387;28;20905;-59
2024/03/13 12:57:47;;;;;;;1.13;1.13;;;10.30;99.90;;;;;;5025008;28;20462;-60
2024/03/13 13:00:14;;;;;;;2.10;1.27;;;10.40;99.90;;;;;;5027233;28;20515;-60
2024/03/13 13:02:41;;;;;;;1.33;1.20;;;10.50;99.90;;;;;;5009084;28;20418;-60
2024/03/13 13:05:07;;;;;;;1.40;1.30;;;10.70;99.90;;;;;;5021842;28;20967;-60
2024/03/13 13:07:33;;;;;;;1.23;1.13;;;10.90;99.90;;;;;;5024570;28;20524;-61
2024/03/13 13:09:58;;;;;;;2.03;1.27;;;11.10;99.90;;;;;;5027337;28;20191;-60
2024/03/13 13:12:26;;;;;;;1.67;1.57;;;11.10;99.90;;;;;;5025313;28;20309;-61
2024/03/13 13:14:52;;;;;;;1.40;1.20;;;11.00;99.90;;;;;;5025706;28;20726;-60
2024/03/13 13:17:18;;;;;;;1.87;1.33;;;10.80;99.90;;;;;;5022339;28;20415;-60